sensor_id;sensor_type;location;lat;lon;timestamp;pressure;altitude;pressure_sealevel;temperature;humidity
12215;BME280;6170;42.206;24.142;2023-02-11T00:01:07;100654.00;;;-3.79;68.28
12215;BME280;6170;42.206;24.142;2023-02-11T00:03:34;100644.22;;;-3.75;68.09
12215;BME280;6170;42.206;24.142;2023-02-11T00:06:05;100660.41;;;-4.06;68.15
12215;BME280;6170;42.206;24.142;2023-02-11T00:08:34;100738.34;;;-3.50;67.43
12215;BME280;6170;42.206;24.142;2023-02-11T00:11:01;100663.03;;;-3.66;67.02
12215;BME280;6170;42.206;24.142;2023-02-11T00:13:28;100737.97;;;-3.02;66.13
12215;BME280;6170;42.206;24.142;2023-02-11T00:15:55;100657.03;;;-3.49;65.93
12215;BME280;6170;42.206;24.142;2023-02-11T00:18:24;100780.75;;;-2.63;65.72
12215;BME280;6170;42.206;24.142;2023-02-11T00:20:51;100735.25;;;-3.40;66.38
12215;BME280;6170;42.206;24.142;2023-02-11T00:23:19;100674.22;;;-3.82;66.33
12215;BME280;6170;42.206;24.142;2023-02-11T00:25:46;100675.09;;;-3.82;67.23
12215;BME280;6170;42.206;24.142;2023-02-11T00:28:13;100716.28;;;-3.65;67.20
12215;BME280;6170;42.206;24.142;2023-02-11T00:30:40;100657.69;;;-4.03;67.27
12215;BME280;6170;42.206;24.142;2023-02-11T00:33:07;100649.44;;;-4.36;68.54
12215;BME280;6170;42.206;24.142;2023-02-11T00:35:37;100651.31;;;-4.18;67.96
12215;BME280;6170;42.206;24.142;2023-02-11T00:38:04;100722.56;;;-3.69;67.09
12215;BME280;6170;42.206;24.142;2023-02-11T00:40:31;100704.31;;;-4.78;68.05
12215;BME280;6170;42.206;24.142;2023-02-11T00:42:58;100688.09;;;-4.64;69.28
12215;BME280;6170;42.206;24.142;2023-02-11T00:45:25;100681.16;;;-4.87;69.52
12215;BME280;6170;42.206;24.142;2023-02-11T00:47:53;100685.22;;;-5.25;69.92
12215;BME280;6170;42.206;24.142;2023-02-11T00:50:20;100664.47;;;-5.53;70.12
12215;BME280;6170;42.206;24.142;2023-02-11T00:52:50;100695.22;;;-5.36;70.28
12215;BME280;6170;42.206;24.142;2023-02-11T00:55:17;100648.56;;;-5.47;70.39
12215;BME280;6170;42.206;24.142;2023-02-11T00:57:44;100640.00;;;-5.50;70.81
12215;BME280;6170;42.206;24.142;2023-02-11T01:00:13;100691.50;;;-5.07;70.58
12215;BME280;6170;42.206;24.142;2023-02-11T01:02:40;100638.34;;;-5.29;70.58
12215;BME280;6170;42.206;24.142;2023-02-11T01:05:07;100685.97;;;-4.76;70.70
12215;BME280;6170;42.206;24.142;2023-02-11T01:07:34;100757.22;;;-4.26;70.52
12215;BME280;6170;42.206;24.142;2023-02-11T01:10:03;100658.28;;;-4.82;70.11
12215;BME280;6170;42.206;24.142;2023-02-11T01:12:32;100692.59;;;-4.68;70.01
12215;BME280;6170;42.206;24.142;2023-02-11T01:14:59;100760.72;;;-4.26;70.41
12215;BME280;6170;42.206;24.142;2023-02-11T01:17:26;100644.38;;;-5.27;70.45
12215;BME280;6170;42.206;24.142;2023-02-11T01:19:53;100642.28;;;-5.18;70.49
12215;BME280;6170;42.206;24.142;2023-02-11T01:22:20;100731.97;;;-4.71;70.58
12215;BME280;6170;42.206;24.142;2023-02-11T01:24:47;100633.22;;;-5.09;70.59
12215;BME280;6170;42.206;24.142;2023-02-11T01:27:16;100672.16;;;-4.80;69.63
12215;BME280;6170;42.206;24.142;2023-02-11T01:29:43;100624.41;;;-5.07;69.90
12215;BME280;6170;42.206;24.142;2023-02-11T01:32:10;100696.56;;;-4.58;70.35
12215;BME280;6170;42.206;24.142;2023-02-11T01:34:37;100620.44;;;-5.17;70.40
12215;BME280;6170;42.206;24.142;2023-02-11T01:37:04;100595.31;;;-5.43;70.83
12215;BME280;6170;42.206;24.142;2023-02-11T01:39:32;100599.59;;;-5.63;71.17
12215;BME280;6170;42.206;24.142;2023-02-11T01:41:59;100637.78;;;-5.37;70.78
12215;BME280;6170;42.206;24.142;2023-02-11T01:44:30;100702.44;;;-5.44;72.29
12215;BME280;6170;42.206;24.142;2023-02-11T01:46:59;100654.19;;;-5.57;72.24
12215;BME280;6170;42.206;24.142;2023-02-11T01:49:28;100651.16;;;-5.45;71.41
12215;BME280;6170;42.206;24.142;2023-02-11T01:52:00;100609.00;;;-5.59;71.65
12215;BME280;6170;42.206;24.142;2023-02-11T01:54:30;100719.81;;;-4.95;71.65
12215;BME280;6170;42.206;24.142;2023-02-11T01:57:18;100577.53;;;-5.79;72.16
12215;BME280;6170;42.206;24.142;2023-02-11T01:59:57;100658.81;;;-5.40;72.33
12215;BME280;6170;42.206;24.142;2023-02-11T02:02:31;100609.94;;;-5.62;71.99
12215;BME280;6170;42.206;24.142;2023-02-11T02:05:04;100605.81;;;-5.44;71.04
12215;BME280;6170;42.206;24.142;2023-02-11T02:07:37;100643.41;;;-5.25;72.46
12215;BME280;6170;42.206;24.142;2023-02-11T02:10:11;100581.19;;;-5.37;72.47
12215;BME280;6170;42.206;24.142;2023-02-11T02:12:39;100585.75;;;-4.99;71.97
12215;BME280;6170;42.206;24.142;2023-02-11T02:15:26;100584.97;;;-4.79;71.05
12215;BME280;6170;42.206;24.142;2023-02-11T02:18:00;100597.94;;;-4.56;70.52
12215;BME280;6170;42.206;24.142;2023-02-11T02:24:09;100590.56;;;-4.88;71.68
12215;BME280;6170;42.206;24.142;2023-02-11T02:27:18;100638.19;;;-4.38;70.99
12215;BME280;6170;42.206;24.142;2023-02-11T02:33:09;100589.88;;;-5.36;70.51
12215;BME280;6170;42.206;24.142;2023-02-11T02:35:46;100711.28;;;-4.55;70.21
12215;BME280;6170;42.206;24.142;2023-02-11T02:38:20;100658.00;;;-4.96;70.61
12215;BME280;6170;42.206;24.142;2023-02-11T02:40:51;100600.88;;;-5.52;70.79
12215;BME280;6170;42.206;24.142;2023-02-11T02:43:20;100679.13;;;-5.02;70.65
12215;BME280;6170;42.206;24.142;2023-02-11T02:45:48;100673.81;;;-5.22;70.59
12215;BME280;6170;42.206;24.142;2023-02-11T02:48:25;100623.34;;;-5.24;71.01
12215;BME280;6170;42.206;24.142;2023-02-11T02:51:00;100670.13;;;-4.95;70.96
12215;BME280;6170;42.206;24.142;2023-02-11T02:53:38;100601.47;;;-5.22;70.30
12215;BME280;6170;42.206;24.142;2023-02-11T02:56:12;100709.50;;;-4.55;70.51
12215;BME280;6170;42.206;24.142;2023-02-11T02:59:08;100666.25;;;-4.85;70.27
12215;BME280;6170;42.206;24.142;2023-02-11T03:01:46;100620.22;;;-5.11;70.22
12215;BME280;6170;42.206;24.142;2023-02-11T03:04:22;100625.78;;;-5.20;70.74
12215;BME280;6170;42.206;24.142;2023-02-11T03:06:55;100692.94;;;-4.77;70.48
12215;BME280;6170;42.206;24.142;2023-02-11T03:09:26;100667.13;;;-4.84;71.44
12215;BME280;6170;42.206;24.142;2023-02-11T03:11:56;100737.75;;;-4.41;70.88
12215;BME280;6170;42.206;24.142;2023-02-11T03:14:24;100703.19;;;-4.49;70.35
12215;BME280;6170;42.206;24.142;2023-02-11T03:16:54;100687.50;;;-4.49;70.71
12215;BME280;6170;42.206;24.142;2023-02-11T03:19:27;100697.94;;;-4.27;70.53
12215;BME280;6170;42.206;24.142;2023-02-11T03:21:55;100723.38;;;-4.09;70.63
12215;BME280;6170;42.206;24.142;2023-02-11T03:24:27;100607.28;;;-4.70;70.22
12215;BME280;6170;42.206;24.142;2023-02-11T03:26:57;100667.47;;;-4.50;70.26
12215;BME280;6170;42.206;24.142;2023-02-11T03:29:30;100664.38;;;-4.81;70.62
12215;BME280;6170;42.206;24.142;2023-02-11T03:32:03;100710.81;;;-4.65;71.07
12215;BME280;6170;42.206;24.142;2023-02-11T03:34:39;100590.25;;;-5.24;71.29
12215;BME280;6170;42.206;24.142;2023-02-11T03:37:11;100612.66;;;-5.40;71.40
12215;BME280;6170;42.206;24.142;2023-02-11T03:39:41;100663.69;;;-5.31;71.04
12215;BME280;6170;42.206;24.142;2023-02-11T03:42:12;100679.38;;;-5.31;71.08
12215;BME280;6170;42.206;24.142;2023-02-11T03:44:46;100706.28;;;-5.06;71.01
12215;BME280;6170;42.206;24.142;2023-02-11T03:47:18;100652.41;;;-5.32;70.13
12215;BME280;6170;42.206;24.142;2023-02-11T03:49:49;100653.00;;;-5.25;71.83
12215;BME280;6170;42.206;24.142;2023-02-11T03:52:22;100668.03;;;-5.09;71.50
12215;BME280;6170;42.206;24.142;2023-02-11T03:54:53;100634.13;;;-5.10;71.03
12215;BME280;6170;42.206;24.142;2023-02-11T03:57:21;100663.78;;;-4.66;70.62
12215;BME280;6170;42.206;24.142;2023-02-11T03:59:52;100666.56;;;-4.71;70.68
12215;BME280;6170;42.206;24.142;2023-02-11T04:02:22;100617.00;;;-4.95;70.33
12215;BME280;6170;42.206;24.142;2023-02-11T04:04:51;100694.53;;;-4.51;70.87
12215;BME280;6170;42.206;24.142;2023-02-11T04:07:19;100748.41;;;-4.24;70.42
12215;BME280;6170;42.206;24.142;2023-02-11T04:09:47;100644.94;;;-4.74;70.40
12215;BME280;6170;42.206;24.142;2023-02-11T04:12:14;100672.94;;;-4.78;70.70
12215;BME280;6170;42.206;24.142;2023-02-11T04:14:41;100746.03;;;-4.30;70.47
12215;BME280;6170;42.206;24.142;2023-02-11T04:17:08;100619.41;;;-5.13;69.91
12215;BME280;6170;42.206;24.142;2023-02-11T04:19:36;100740.84;;;-4.31;70.75
12215;BME280;6170;42.206;24.142;2023-02-11T04:22:05;100716.22;;;-4.47;70.42
12215;BME280;6170;42.206;24.142;2023-02-11T04:24:32;100675.19;;;-4.90;70.91
12215;BME280;6170;42.206;24.142;2023-02-11T04:26:59;100625.28;;;-5.29;70.67
12215;BME280;6170;42.206;24.142;2023-02-11T04:29:26;100629.50;;;-5.72;71.57
12215;BME280;6170;42.206;24.142;2023-02-11T04:31:54;100665.97;;;-5.70;72.17
12215;BME280;6170;42.206;24.142;2023-02-11T04:34:21;100660.53;;;-5.64;71.89
12215;BME280;6170;42.206;24.142;2023-02-11T04:36:48;100613.31;;;-5.81;72.82
12215;BME280;6170;42.206;24.142;2023-02-11T04:39:19;100665.34;;;-5.29;71.56
12215;BME280;6170;42.206;24.142;2023-02-11T04:41:46;100733.47;;;-5.10;72.07
12215;BME280;6170;42.206;24.142;2023-02-11T04:44:14;100598.13;;;-5.94;72.13
12215;BME280;6170;42.206;24.142;2023-02-11T04:46:41;100599.34;;;-6.28;72.76
12215;BME280;6170;42.206;24.142;2023-02-11T04:49:11;100683.47;;;-5.72;72.95
12215;BME280;6170;42.206;24.142;2023-02-11T04:51:38;100720.25;;;-5.07;73.91
12215;BME280;6170;42.206;24.142;2023-02-11T04:54:05;100699.75;;;-4.94;73.12
12215;BME280;6170;42.206;24.142;2023-02-11T04:56:34;100633.50;;;-5.17;72.07
12215;BME280;6170;42.206;24.142;2023-02-11T04:59:01;100687.72;;;-4.77;72.00
12215;BME280;6170;42.206;24.142;2023-02-11T05:01:28;100610.25;;;-5.23;72.27
12215;BME280;6170;42.206;24.142;2023-02-11T05:03:55;100734.22;;;-4.40;72.63
12215;BME280;6170;42.206;24.142;2023-02-11T05:06:23;100614.59;;;-5.00;71.26
12215;BME280;6170;42.206;24.142;2023-02-11T05:08:50;100689.56;;;-4.57;72.19
12215;BME280;6170;42.206;24.142;2023-02-11T05:11:19;100727.91;;;-4.34;73.18
12215;BME280;6170;42.206;24.142;2023-02-11T05:13:48;100680.44;;;-4.47;72.25
12215;BME280;6170;42.206;24.142;2023-02-11T05:16:16;100598.72;;;-4.74;71.65
12215;BME280;6170;42.206;24.142;2023-02-11T05:18:44;100691.34;;;-4.16;71.18
12215;BME280;6170;42.206;24.142;2023-02-11T05:21:14;100640.59;;;-4.54;71.41
12215;BME280;6170;42.206;24.142;2023-02-11T05:23:42;100672.25;;;-4.18;70.20
12215;BME280;6170;42.206;24.142;2023-02-11T05:26:09;100708.38;;;-4.05;71.52
12215;BME280;6170;42.206;24.142;2023-02-11T05:28:37;100680.38;;;-4.03;70.76
12215;BME280;6170;42.206;24.142;2023-02-11T05:31:06;100697.66;;;-3.99;70.43
12215;BME280;6170;42.206;24.142;2023-02-11T05:33:36;100655.78;;;-3.99;69.70
12215;BME280;6170;42.206;24.142;2023-02-11T05:36:05;100666.81;;;-3.93;69.67
12215;BME280;6170;42.206;24.142;2023-02-11T05:38:33;100681.34;;;-3.66;69.50
12215;BME280;6170;42.206;24.142;2023-02-11T05:41:01;100678.81;;;-4.07;68.93
12215;BME280;6170;42.206;24.142;2023-02-11T05:43:28;100673.59;;;-4.07;68.96
12215;BME280;6170;42.206;24.142;2023-02-11T05:45:57;100606.91;;;-4.61;69.68
12215;BME280;6170;42.206;24.142;2023-02-11T05:48:26;100682.25;;;-4.07;70.01
12215;BME280;6170;42.206;24.142;2023-02-11T05:50:53;100614.66;;;-4.60;69.17
12215;BME280;6170;42.206;24.142;2023-02-11T05:53:23;100671.59;;;-4.23;69.90
12215;BME280;6170;42.206;24.142;2023-02-11T05:55:50;100652.88;;;-4.34;69.72
12215;BME280;6170;42.206;24.142;2023-02-11T05:58:17;100726.34;;;-3.56;69.68
12215;BME280;6170;42.206;24.142;2023-02-11T06:00:47;100701.16;;;-3.20;68.27
12215;BME280;6170;42.206;24.142;2023-02-11T06:03:13;100644.34;;;-2.64;67.67
12215;BME280;6170;42.206;24.142;2023-02-11T06:05:43;100601.84;;;-2.19;65.98
12215;BME280;6170;42.206;24.142;2023-02-11T06:08:11;100646.44;;;-1.18;63.38
12215;BME280;6170;42.206;24.142;2023-02-11T06:10:38;100591.09;;;-1.01;60.57
12215;BME280;6170;42.206;24.142;2023-02-11T06:13:07;100599.50;;;-0.03;58.04
12215;BME280;6170;42.206;24.142;2023-02-11T06:15:34;100686.97;;;0.76;58.55
12215;BME280;6170;42.206;24.142;2023-02-11T06:18:01;100609.78;;;0.86;57.37
12215;BME280;6170;42.206;24.142;2023-02-11T06:20:28;100682.00;;;2.21;55.67
12215;BME280;6170;42.206;24.142;2023-02-11T06:22:57;100600.72;;;2.10;53.91
12215;BME280;6170;42.206;24.142;2023-02-11T06:25:24;100593.69;;;2.85;53.08
12215;BME280;6170;42.206;24.142;2023-02-11T06:27:54;100652.81;;;3.58;52.31
12215;BME280;6170;42.206;24.142;2023-02-11T06:30:21;100612.31;;;3.33;51.74
12215;BME280;6170;42.206;24.142;2023-02-11T06:32:48;100618.69;;;2.94;53.53
12215;BME280;6170;42.206;24.142;2023-02-11T06:35:16;100593.09;;;3.42;51.55
12215;BME280;6170;42.206;24.142;2023-02-11T06:37:43;100633.28;;;4.07;51.34
12215;BME280;6170;42.206;24.142;2023-02-11T06:40:11;100626.03;;;4.09;49.37
12215;BME280;6170;42.206;24.142;2023-02-11T06:42:38;100658.38;;;3.90;51.25
12215;BME280;6170;42.206;24.142;2023-02-11T06:45:06;100672.97;;;5.10;49.00
12215;BME280;6170;42.206;24.142;2023-02-11T06:47:35;100617.31;;;4.97;48.07
12215;BME280;6170;42.206;24.142;2023-02-11T06:50:04;100595.53;;;5.26;47.01
12215;BME280;6170;42.206;24.142;2023-02-11T06:52:33;100652.34;;;4.80;48.99
12215;BME280;6170;42.206;24.142;2023-02-11T06:55:00;100624.81;;;4.59;48.70
12215;BME280;6170;42.206;24.142;2023-02-11T06:57:30;100632.66;;;5.16;48.49
12215;BME280;6170;42.206;24.142;2023-02-11T06:59:58;100586.66;;;4.71;48.10
12215;BME280;6170;42.206;24.142;2023-02-11T07:02:26;100626.78;;;5.44;48.01
12215;BME280;6170;42.206;24.142;2023-02-11T07:04:53;100567.97;;;5.27;47.73
12215;BME280;6170;42.206;24.142;2023-02-11T07:07:20;100615.84;;;5.16;46.91
12215;BME280;6170;42.206;24.142;2023-02-11T07:09:47;100577.22;;;4.78;47.98
12215;BME280;6170;42.206;24.142;2023-02-11T07:12:14;100671.84;;;5.57;47.84
12215;BME280;6170;42.206;24.142;2023-02-11T07:14:43;100572.22;;;5.18;47.85
12215;BME280;6170;42.206;24.142;2023-02-11T07:17:09;100658.13;;;4.85;47.35
12215;BME280;6170;42.206;24.142;2023-02-11T07:19:36;100613.34;;;4.59;47.77
12215;BME280;6170;42.206;24.142;2023-02-11T07:22:03;100628.16;;;4.61;47.50
12215;BME280;6170;42.206;24.142;2023-02-11T07:24:30;100600.50;;;4.30;47.56
12215;BME280;6170;42.206;24.142;2023-02-11T07:26:57;100654.16;;;4.69;46.11
12215;BME280;6170;42.206;24.142;2023-02-11T07:29:24;100607.50;;;5.20;47.22
12215;BME280;6170;42.206;24.142;2023-02-11T07:31:53;100679.09;;;5.55;47.24
12215;BME280;6170;42.206;24.142;2023-02-11T07:34:19;100672.81;;;5.99;45.95
12215;BME280;6170;42.206;24.142;2023-02-11T07:36:46;100602.72;;;5.03;47.02
12215;BME280;6170;42.206;24.142;2023-02-11T07:39:14;100668.69;;;4.41;48.17
12215;BME280;6170;42.206;24.142;2023-02-11T07:41:41;100671.94;;;4.33;49.23
12215;BME280;6170;42.206;24.142;2023-02-11T07:44:09;100566.28;;;3.23;49.86
12215;BME280;6170;42.206;24.142;2023-02-11T07:46:36;100660.72;;;3.71;50.45
12215;BME280;6170;42.206;24.142;2023-02-11T07:49:10;100655.19;;;3.98;50.23
12215;BME280;6170;42.206;24.142;2023-02-11T07:51:37;100579.84;;;3.42;49.78
12215;BME280;6170;42.206;24.142;2023-02-11T07:54:04;100655.22;;;3.85;49.37
12215;BME280;6170;42.206;24.142;2023-02-11T07:56:31;100572.13;;;2.79;49.80
12215;BME280;6170;42.206;24.142;2023-02-11T07:59:01;100646.03;;;3.54;49.92
12215;BME280;6170;42.206;24.142;2023-02-11T08:01:28;100658.59;;;4.11;49.49
12215;BME280;6170;42.206;24.142;2023-02-11T08:03:57;100634.69;;;4.46;48.73
12215;BME280;6170;42.206;24.142;2023-02-11T08:06:26;100649.50;;;4.48;48.21
12215;BME280;6170;42.206;24.142;2023-02-11T08:08:54;100605.72;;;4.65;47.86
12215;BME280;6170;42.206;24.142;2023-02-11T08:11:24;100572.28;;;4.40;47.65
12215;BME280;6170;42.206;24.142;2023-02-11T08:13:51;100530.16;;;4.02;47.44
12215;BME280;6170;42.206;24.142;2023-02-11T08:16:21;100616.94;;;5.02;47.94
12215;BME280;6170;42.206;24.142;2023-02-11T08:18:48;100575.41;;;4.34;46.07
12215;BME280;6170;42.206;24.142;2023-02-11T08:21:15;100617.44;;;4.74;44.99
12215;BME280;6170;42.206;24.142;2023-02-11T08:23:45;100563.38;;;5.29;44.92
12215;BME280;6170;42.206;24.142;2023-02-11T08:26:13;100567.22;;;4.71;44.57
12215;BME280;6170;42.206;24.142;2023-02-11T08:28:42;100608.63;;;4.84;45.44
12215;BME280;6170;42.206;24.142;2023-02-11T08:31:12;100574.59;;;4.67;44.52
12215;BME280;6170;42.206;24.142;2023-02-11T08:46:36;100549.13;;;6.14;42.05
12215;BME280;6170;42.206;24.142;2023-02-11T08:49:03;100557.03;;;6.25;42.09
12215;BME280;6170;42.206;24.142;2023-02-11T08:51:30;100559.22;;;6.71;41.50
12215;BME280;6170;42.206;24.142;2023-02-11T08:53:57;100556.81;;;6.68;42.23
12215;BME280;6170;42.206;24.142;2023-02-11T08:56:24;100551.59;;;6.97;42.24
12215;BME280;6170;42.206;24.142;2023-02-11T08:58:52;100554.47;;;6.75;40.26
12215;BME280;6170;42.206;24.142;2023-02-11T09:01:20;100571.03;;;7.38;40.15
12215;BME280;6170;42.206;24.142;2023-02-11T09:03:49;100556.59;;;7.79;39.76
12215;BME280;6170;42.206;24.142;2023-02-11T09:06:16;100534.81;;;7.54;40.21
12215;BME280;6170;42.206;24.142;2023-02-11T09:08:46;100594.41;;;7.15;40.26
12215;BME280;6170;42.206;24.142;2023-02-11T09:11:13;100536.50;;;7.46;39.04
12215;BME280;6170;42.206;24.142;2023-02-11T09:13:41;100536.66;;;7.83;40.32
12215;BME280;6170;42.206;24.142;2023-02-11T09:16:15;100573.84;;;7.46;39.37
12215;BME280;6170;42.206;24.142;2023-02-11T09:18:42;100539.31;;;6.75;41.74
12215;BME280;6170;42.206;24.142;2023-02-11T09:21:11;100538.53;;;6.24;40.47
12215;BME280;6170;42.206;24.142;2023-02-11T09:23:38;100576.06;;;6.42;41.64
12215;BME280;6170;42.206;24.142;2023-02-11T09:26:09;100545.59;;;6.35;41.23
12215;BME280;6170;42.206;24.142;2023-02-11T09:28:37;100536.56;;;6.56;41.30
12215;BME280;6170;42.206;24.142;2023-02-11T09:31:05;100532.19;;;6.76;40.39
12215;BME280;6170;42.206;24.142;2023-02-11T09:33:32;100528.88;;;7.03;40.84
12215;BME280;6170;42.206;24.142;2023-02-11T09:35:59;100522.25;;;6.88;39.66
12215;BME280;6170;42.206;24.142;2023-02-11T09:38:28;100513.50;;;6.66;40.07
12215;BME280;6170;42.206;24.142;2023-02-11T09:40:55;100517.09;;;7.05;40.04
12215;BME280;6170;42.206;24.142;2023-02-11T09:43:23;100517.66;;;7.09;40.06
12215;BME280;6170;42.206;24.142;2023-02-11T09:45:53;100553.94;;;6.91;39.48
12215;BME280;6170;42.206;24.142;2023-02-11T09:48:22;100498.41;;;6.46;40.62
12215;BME280;6170;42.206;24.142;2023-02-11T09:50:50;100498.09;;;6.80;40.08
12215;BME280;6170;42.206;24.142;2023-02-11T09:53:23;100484.16;;;7.26;39.43
12215;BME280;6170;42.206;24.142;2023-02-11T09:55:53;100480.19;;;7.39;38.61
12215;BME280;6170;42.206;24.142;2023-02-11T09:58:25;100474.19;;;7.28;40.78
12215;BME280;6170;42.206;24.142;2023-02-11T10:00:58;100473.88;;;6.92;40.91
12215;BME280;6170;42.206;24.142;2023-02-11T10:03:59;100453.41;;;8.06;40.37
12215;BME280;6170;42.206;24.142;2023-02-11T10:06:37;100443.91;;;7.94;39.72
12215;BME280;6170;42.206;24.142;2023-02-11T10:09:22;100482.34;;;8.11;38.80
12215;BME280;6170;42.206;24.142;2023-02-11T10:12:02;100435.50;;;7.89;38.42
12215;BME280;6170;42.206;24.142;2023-02-11T10:14:54;100422.91;;;8.19;38.99
12215;BME280;6170;42.206;24.142;2023-02-11T10:17:30;100412.34;;;8.54;38.50
12215;BME280;6170;42.206;24.142;2023-02-11T10:20:16;100416.63;;;8.37;37.09
12215;BME280;6170;42.206;24.142;2023-02-11T10:22:49;100416.94;;;8.25;38.07
12215;BME280;6170;42.206;24.142;2023-02-11T10:25:21;100404.22;;;8.19;37.39
12215;BME280;6170;42.206;24.142;2023-02-11T10:27:51;100398.78;;;7.64;37.79
12215;BME280;6170;42.206;24.142;2023-02-11T10:30:22;100393.44;;;8.38;38.78
12215;BME280;6170;42.206;24.142;2023-02-11T10:32:57;100390.63;;;8.84;38.39
12215;BME280;6170;42.206;24.142;2023-02-11T10:35:26;100387.63;;;8.70;36.62
12215;BME280;6170;42.206;24.142;2023-02-11T10:37:53;100368.09;;;8.87;37.25
12215;BME280;6170;42.206;24.142;2023-02-11T10:40:22;100374.38;;;9.39;37.07
12215;BME280;6170;42.206;24.142;2023-02-11T10:42:52;100366.97;;;9.33;37.12
12215;BME280;6170;42.206;24.142;2023-02-11T10:45:24;100354.41;;;9.51;37.48
12215;BME280;6170;42.206;24.142;2023-02-11T10:47:53;100354.13;;;8.93;35.79
12215;BME280;6170;42.206;24.142;2023-02-11T10:50:25;100286.38;;;8.31;37.73
12215;BME280;6170;42.206;24.142;2023-02-11T10:53:10;100331.31;;;9.24;38.47
12215;BME280;6170;42.206;24.142;2023-02-11T10:55:37;100325.69;;;8.92;36.31
12215;BME280;6170;42.206;24.142;2023-02-11T10:58:06;100367.47;;;8.93;36.45
12215;BME280;6170;42.206;24.142;2023-02-11T11:00:34;100315.00;;;8.39;37.04
12215;BME280;6170;42.206;24.142;2023-02-11T11:03:04;100311.81;;;8.53;37.75
12215;BME280;6170;42.206;24.142;2023-02-11T11:05:35;100299.97;;;8.55;36.49
12215;BME280;6170;42.206;24.142;2023-02-11T11:08:05;100298.97;;;8.39;36.96
12215;BME280;6170;42.206;24.142;2023-02-11T11:10:38;100296.38;;;8.29;37.86
12215;BME280;6170;42.206;24.142;2023-02-11T11:13:30;100297.28;;;8.73;37.86
12215;BME280;6170;42.206;24.142;2023-02-11T11:16:19;100294.91;;;8.88;36.81
12215;BME280;6170;42.206;24.142;2023-02-11T11:18:47;100284.44;;;8.94;37.35
12215;BME280;6170;42.206;24.142;2023-02-11T11:21:18;100284.75;;;8.91;36.78
12215;BME280;6170;42.206;24.142;2023-02-11T11:23:48;100282.03;;;8.66;35.80
12215;BME280;6170;42.206;24.142;2023-02-11T11:26:16;100296.06;;;9.29;37.99
12215;BME280;6170;42.206;24.142;2023-02-11T11:28:53;100259.19;;;9.40;35.53
12215;BME280;6170;42.206;24.142;2023-02-11T11:31:23;100251.00;;;9.16;35.84
12215;BME280;6170;42.206;24.142;2023-02-11T11:33:53;100250.75;;;9.01;36.76
12215;BME280;6170;42.206;24.142;2023-02-11T11:36:24;100230.25;;;8.84;36.15
12215;BME280;6170;42.206;24.142;2023-02-11T11:38:59;100235.47;;;9.45;35.88
12215;BME280;6170;42.206;24.142;2023-02-11T11:41:28;100228.09;;;9.47;35.98
12215;BME280;6170;42.206;24.142;2023-02-11T11:44:17;100224.56;;;10.31;35.63
12215;BME280;6170;42.206;24.142;2023-02-11T11:46:50;100230.91;;;9.38;35.02
12215;BME280;6170;42.206;24.142;2023-02-11T11:49:21;100268.66;;;10.11;34.24
12215;BME280;6170;42.206;24.142;2023-02-11T11:51:56;100220.66;;;9.59;33.01
12215;BME280;6170;42.206;24.142;2023-02-11T11:54:27;100217.47;;;9.64;33.16
12215;BME280;6170;42.206;24.142;2023-02-11T11:56:59;100212.25;;;9.54;33.27
12215;BME280;6170;42.206;24.142;2023-02-11T11:59:29;100208.72;;;9.45;33.75
12215;BME280;6170;42.206;24.142;2023-02-11T12:02:34;100201.19;;;9.99;34.79
12215;BME280;6170;42.206;24.142;2023-02-11T12:05:08;100201.94;;;10.58;35.08
12215;BME280;6170;42.206;24.142;2023-02-11T12:07:56;100193.22;;;10.72;33.59
12215;BME280;6170;42.206;24.142;2023-02-11T12:10:43;100177.66;;;10.67;33.73
12215;BME280;6170;42.206;24.142;2023-02-11T12:13:38;100193.34;;;10.06;33.02
12215;BME280;6170;42.206;24.142;2023-02-11T12:16:15;100183.50;;;10.22;32.94
12215;BME280;6170;42.206;24.142;2023-02-11T12:19:08;100178.31;;;10.77;33.59
12215;BME280;6170;42.206;24.142;2023-02-11T12:21:45;100176.31;;;10.23;33.03
12215;BME280;6170;42.206;24.142;2023-02-11T12:24:24;100164.75;;;10.55;32.70
12215;BME280;6170;42.206;24.142;2023-02-11T12:26:58;100185.00;;;10.09;32.95
12215;BME280;6170;42.206;24.142;2023-02-11T12:29:35;100165.59;;;9.57;33.48
12215;BME280;6170;42.206;24.142;2023-02-11T12:32:16;100167.47;;;9.22;33.65
12215;BME280;6170;42.206;24.142;2023-02-11T12:38:02;100145.72;;;9.17;33.81
12215;BME280;6170;42.206;24.142;2023-02-11T12:40:38;100146.66;;;9.08;34.26
12215;BME280;6170;42.206;24.142;2023-02-11T12:43:19;100153.72;;;9.17;34.45
12215;BME280;6170;42.206;24.142;2023-02-11T12:46:00;100144.38;;;9.21;34.16
12215;BME280;6170;42.206;24.142;2023-02-11T12:51:39;100123.81;;;8.80;34.57
12215;BME280;6170;42.206;24.142;2023-02-11T12:54:16;100133.66;;;9.13;33.50
12215;BME280;6170;42.206;24.142;2023-02-11T12:56:49;100140.88;;;8.61;34.13
12215;BME280;6170;42.206;24.142;2023-02-11T12:59:28;100133.56;;;8.28;34.36
12215;BME280;6170;42.206;24.142;2023-02-11T13:01:58;100132.97;;;8.51;34.54
12215;BME280;6170;42.206;24.142;2023-02-11T13:04:34;100137.47;;;9.02;34.17
12215;BME280;6170;42.206;24.142;2023-02-11T13:07:04;100129.53;;;8.85;33.69
12215;BME280;6170;42.206;24.142;2023-02-11T13:09:39;100127.06;;;8.99;33.63
12215;BME280;6170;42.206;24.142;2023-02-11T13:12:11;100122.88;;;8.97;33.53
12215;BME280;6170;42.206;24.142;2023-02-11T13:14:58;100121.50;;;9.19;32.55
12215;BME280;6170;42.206;24.142;2023-02-11T13:17:31;100129.28;;;9.12;33.56
12215;BME280;6170;42.206;24.142;2023-02-11T13:20:03;100110.25;;;8.81;33.79
12215;BME280;6170;42.206;24.142;2023-02-11T13:22:38;100097.75;;;8.82;33.66
12215;BME280;6170;42.206;24.142;2023-02-11T13:25:18;100105.25;;;8.78;34.95
12215;BME280;6170;42.206;24.142;2023-02-11T13:27:54;100097.16;;;8.62;34.17
12215;BME280;6170;42.206;24.142;2023-02-11T13:30:26;100102.06;;;8.75;33.66
12215;BME280;6170;42.206;24.142;2023-02-11T13:35:40;100155.34;;;9.02;33.98
12215;BME280;6170;42.206;24.142;2023-02-11T13:38:18;100097.63;;;8.91;32.37
12215;BME280;6170;42.206;24.142;2023-02-11T13:40:58;100095.09;;;8.56;32.76
12215;BME280;6170;42.206;24.142;2023-02-11T13:43:28;100099.72;;;8.72;33.22